Time;durP1;ratioP1;P1;durP2;ratioP2;P2;SDS_P1;SDS_P2;PMS_P1;PMS_P2;Temp;Humidity;BMP_temperature;BMP_pressure;BME280_temperature;BME280_humidity;BME280_pressure;Samples;Min_cycle;Max_cycle;Signal;HPM_P1;HPM_P2
2021/09/23 00:00:17;;;;;;;54.45;33.35;;;;;;;11.41;100.00;101910.91;5032978;28;20474;-75
2021/09/23 00:05:10;;;;;;;50.38;31.85;;;;;;;11.39;100.00;101912.81;5040396;28;20072;-75
2021/09/23 00:07:36;;;;;;;47.15;31.83;;;;;;;11.35;100.00;101896.47;5028744;28;20037;-76
2021/09/23 00:10:04;;;;;;;55.92;35.05;;;;;;;11.40;100.00;101891.69;5004946;28;20037;-74
2021/09/23 00:12:29;;;;;;;63.13;34.58;;;;;;;11.44;100.00;101887.03;5046825;28;20108;-76
2021/09/23 00:14:55;;;;;;;55.97;32.85;;;;;;;11.39;100.00;101878.66;5045621;28;20097;-77
2021/09/23 00:17:21;;;;;;;57.85;35.25;;;;;;;11.40;100.00;101877.72;5041133;28;20044;-76
2021/09/23 00:19:46;;;;;;;52.50;32.35;;;;;;;11.38;100.00;101877.03;5012098;28;20037;-76
2021/09/23 00:22:12;;;;;;;66.68;35.50;;;;;;;11.37;100.00;101877.97;5043620;28;20387;-76
2021/09/23 00:24:37;;;;;;;57.72;33.65;;;;;;;11.34;100.00;101871.19;5044230;28;20571;-77
2021/09/23 00:27:03;;;;;;;52.33;32.92;;;;;;;11.36;100.00;101864.00;5028022;28;20120;-75
2021/09/23 00:29:29;;;;;;;56.92;34.65;;;;;;;11.33;100.00;101863.41;5034257;28;20492;-74
2021/09/23 00:32:02;;;;;;;;;;;;;;;11.28;100.00;101867.25;5032345;28;20511;-76
2021/09/23 00:34:27;;;;;;;66.53;36.58;;;;;;;11.32;100.00;101865.22;5041869;28;20095;-73
2021/09/23 00:36:53;;;;;;;62.65;35.42;;;;;;;11.38;100.00;101861.25;5032286;28;20525;-77
2021/09/23 00:39:21;;;;;;;66.20;36.63;;;;;;;11.36;100.00;101861.38;5035223;28;20044;-76
2021/09/23 00:41:47;;;;;;;67.75;37.05;;;;;;;11.38;100.00;101858.63;5043623;28;20029;-76
2021/09/23 00:44:21;;;;;;;57.38;34.97;;;;;;;11.37;100.00;101851.69;5029511;28;20052;-77
2021/09/23 00:46:49;;;;;;;61.92;33.72;;;;;;;11.33;100.00;101840.59;5036237;28;20040;-75
2021/09/23 00:49:17;;;;;;;56.30;33.35;;;;;;;11.30;100.00;101840.84;5040816;28;20040;-74
2021/09/23 00:51:44;;;;;;;62.05;34.03;;;;;;;11.33;100.00;101829.28;5017061;28;20033;-76
2021/09/23 00:54:11;;;;;;;65.70;35.35;;;;;;;11.28;100.00;101821.75;5014935;28;20088;-75
2021/09/23 00:56:38;;;;;;;61.22;32.65;;;;;;;11.21;100.00;101813.53;5017592;28;20120;-76
2021/09/23 00:59:04;;;;;;;54.97;33.50;;;;;;;11.20;100.00;101813.66;5028133;28;20045;-75
2021/09/23 01:01:30;;;;;;;59.22;35.00;;;;;;;11.12;100.00;101803.78;5020517;28;20033;-75
2021/09/23 01:03:58;;;;;;;54.83;33.63;;;;;;;11.07;100.00;101811.19;5012503;28;20037;-76
2021/09/23 01:06:23;;;;;;;69.78;34.15;;;;;;;11.06;100.00;101804.28;5019578;28;20029;-76
2021/09/23 01:08:57;;;;;;;58.17;33.25;;;;;;;11.03;100.00;101801.91;5009697;28;20155;-76
2021/09/23 01:11:25;;;;;;;50.40;31.40;;;;;;;10.98;100.00;101810.16;5011776;28;20041;-75
2021/09/23 01:13:51;;;;;;;53.60;33.35;;;;;;;10.96;100.00;101800.72;5009357;28;20033;-75
2021/09/23 01:16:30;;;;;;;50.80;31.00;;;;;;;10.98;100.00;101799.66;5028580;28;20036;-75
2021/09/23 01:19:03;;;;;;;61.20;32.92;;;;;;;10.92;100.00;101792.25;5013594;28;20517;-75
2021/09/23 01:21:32;;;;;;;61.30;34.92;;;;;;;10.84;100.00;101785.00;5021464;28;20192;-76
2021/09/23 01:23:58;;;;;;;58.75;34.05;;;;;;;10.79;100.00;101786.31;5027259;28;20132;-75
2021/09/23 01:26:29;;;;;;;67.78;37.42;;;;;;;10.80;100.00;101783.56;5022820;28;20128;-75
2021/09/23 01:28:57;;;;;;;58.42;36.65;;;;;;;10.76;100.00;101782.16;5012301;28;20123;-76
2021/09/23 01:31:24;;;;;;;65.00;36.50;;;;;;;10.69;100.00;101779.19;5029461;28;20037;-76
2021/09/23 01:33:51;;;;;;;61.15;36.33;;;;;;;10.72;100.00;101780.75;5029248;28;20785;-76
2021/09/23 01:36:18;;;;;;;58.80;34.35;;;;;;;10.77;100.00;101768.06;5033322;28;20100;-75
2021/09/23 01:38:44;;;;;;;58.88;35.80;;;;;;;10.73;100.00;101768.44;5009600;28;20034;-74
2021/09/23 01:41:11;;;;;;;67.15;38.35;;;;;;;10.63;100.00;101763.09;5032742;28;20762;-75
2021/09/23 01:43:37;;;;;;;64.20;37.95;;;;;;;10.61;100.00;101757.97;5042994;28;20040;-75
2021/09/23 01:46:03;;;;;;;55.88;34.60;;;;;;;10.58;100.00;101752.13;5045880;28;20655;-75
2021/09/23 01:48:31;;;;;;;60.65;37.17;;;;;;;10.55;100.00;101744.50;5044979;28;20148;-74
2021/09/23 01:50:57;;;;;;;62.80;35.97;;;;;;;10.52;100.00;101737.72;5019807;28;20104;-75
2021/09/23 01:53:22;;;;;;;66.90;38.20;;;;;;;10.55;100.00;101737.47;5023941;28;20047;-74
2021/09/23 01:55:48;;;;;;;64.18;39.35;;;;;;;10.48;100.00;101721.38;5029192;28;20036;-75
2021/09/23 01:58:14;;;;;;;67.28;39.08;;;;;;;10.50;100.00;101723.88;5025207;28;20036;-76
2021/09/23 02:00:40;;;;;;;67.40;40.05;;;;;;;10.46;100.00;101718.03;5025887;28;20037;-75
2021/09/23 02:03:07;;;;;;;71.80;39.20;;;;;;;10.41;100.00;101722.00;5031504;28;20124;-76
2021/09/23 02:05:49;;;;;;;70.57;41.78;;;;;;;10.40;100.00;101713.28;5011945;28;20148;-75
2021/09/23 02:08:14;;;;;;;68.88;39.55;;;;;;;10.42;100.00;101697.44;5027575;28;20037;-75
2021/09/23 02:10:40;;;;;;;75.32;40.15;;;;;;;10.49;100.00;101694.22;4993567;28;20075;-75
2021/09/23 02:13:05;;;;;;;68.85;39.35;;;;;;;10.51;100.00;101680.97;5009644;28;20041;-76
2021/09/23 02:15:32;;;;;;;72.30;42.22;;;;;;;10.45;100.00;101679.69;5031935;28;20056;-76
2021/09/23 02:17:58;;;;;;;71.93;41.03;;;;;;;10.46;100.00;101680.50;5028620;28;20072;-76
2021/09/23 02:20:23;;;;;;;70.97;40.95;;;;;;;10.55;100.00;101671.03;5021875;28;20112;-75
2021/09/23 02:22:50;;;;;;;68.93;40.92;;;;;;;10.54;100.00;101669.38;5045656;28;20547;-76
2021/09/23 02:25:19;;;;;;;70.43;42.20;;;;;;;10.67;100.00;101668.25;5013281;28;20499;-73
2021/09/23 02:27:45;;;;;;;73.22;43.42;;;;;;;10.68;100.00;101659.44;5016227;28;20790;-76
2021/09/23 02:30:11;;;;;;;71.30;41.78;;;;;;;10.68;100.00;101662.06;5045478;28;20033;-76
2021/09/23 02:32:37;;;;;;;70.90;41.72;;;;;;;10.63;100.00;101650.28;5013426;28;20132;-76
2021/09/23 02:35:04;;;;;;;74.93;42.17;;;;;;;10.48;100.00;101649.72;5042819;28;20127;-75
2021/09/23 02:37:30;;;;;;;64.22;39.13;;;;;;;10.41;100.00;101667.75;5049362;28;20401;-74
2021/09/23 02:39:57;;;;;;;78.10;41.00;;;;;;;10.32;100.00;101664.09;5028462;28;20037;-76
2021/09/23 02:42:24;;;;;;;70.45;40.30;;;;;;;10.32;100.00;101658.84;5033862;28;20041;-75
2021/09/23 02:44:50;;;;;;;65.60;41.30;;;;;;;10.33;100.00;101657.03;5018641;28;20033;-76
2021/09/23 02:47:16;;;;;;;75.03;43.38;;;;;;;10.29;100.00;101659.03;5043594;28;20049;-76
2021/09/23 02:49:41;;;;;;;81.68;45.78;;;;;;;10.42;100.00;101648.44;5013668;28;20029;-74
2021/09/23 02:52:09;;;;;;;79.47;44.20;;;;;;;10.41;100.00;101654.63;5009128;28;20143;-74
2021/09/23 02:54:34;;;;;;;71.32;41.28;;;;;;;10.36;100.00;101645.47;5025418;28;20087;-75
2021/09/23 02:57:00;;;;;;;85.90;45.03;;;;;;;10.31;100.00;101637.97;5037684;28;20033;-74
2021/09/23 02:59:25;;;;;;;72.47;41.65;;;;;;;10.27;100.00;101633.91;5040157;28;20489;-72
2021/09/23 03:01:51;;;;;;;71.80;40.78;;;;;;;10.25;100.00;101626.16;5048314;28;20036;-74
2021/09/23 03:04:17;;;;;;;79.57;42.38;;;;;;;10.26;100.00;101626.97;5030681;28;20033;-77
2021/09/23 03:06:42;;;;;;;67.35;40.42;;;;;;;10.24;100.00;101624.47;4997717;28;20041;-76
2021/09/23 03:09:11;;;;;;;79.82;42.67;;;;;;;10.24;100.00;101621.03;5047379;23;20041;-74
2021/09/23 03:11:37;;;;;;;86.07;44.78;;;;;;;10.32;100.00;101613.41;5017036;28;20041;-73
2021/09/23 03:14:03;;;;;;;79.28;44.08;;;;;;;10.34;100.00;101603.66;5030841;28;20412;-74
2021/09/23 03:16:28;;;;;;;84.07;45.20;;;;;;;10.38;100.00;101598.97;5013845;28;20409;-75
2021/09/23 03:18:54;;;;;;;88.28;45.83;;;;;;;10.47;100.00;101598.22;5005131;28;20041;-75
2021/09/23 03:21:19;;;;;;;85.03;45.55;;;;;;;10.59;100.00;101583.28;5013815;28;20037;-74
2021/09/23 03:23:46;;;;;;;86.15;45.67;;;;;;;10.57;100.00;101577.31;5028973;28;20105;-75
2021/09/23 03:26:11;;;;;;;81.97;44.15;;;;;;;10.59;100.00;101576.25;5012215;28;20044;-72
2021/09/23 03:28:39;;;;;;;78.60;43.50;;;;;;;10.70;100.00;101583.25;5012726;28;20416;-75
2021/09/23 03:31:04;;;;;;;90.80;46.55;;;;;;;10.71;100.00;101580.47;5029289;28;20083;-74
2021/09/23 03:33:30;;;;;;;91.72;44.95;;;;;;;10.74;100.00;101573.28;5022290;28;20029;-75
2021/09/23 03:35:57;;;;;;;88.93;44.47;;;;;;;10.74;100.00;101582.03;5028952;28;20122;-75
2021/09/23 03:38:22;;;;;;;82.97;44.40;;;;;;;10.76;100.00;101566.97;5014866;28;20118;-76
2021/09/23 03:40:49;;;;;;;82.65;43.15;;;;;;;10.76;100.00;101571.41;5024939;28;20069;-75
2021/09/23 03:43:19;;;;;;;84.32;42.53;;;;;;;10.65;100.00;101573.09;5028727;28;20033;-76
2021/09/23 03:45:49;;;;;;;87.13;43.40;;;;;;;10.58;100.00;101569.31;5027945;28;20037;-75
2021/09/23 03:48:16;;;;;;;90.30;43.90;;;;;;;10.55;100.00;101566.09;5027956;28;20091;-75
2021/09/23 03:50:41;;;;;;;90.80;43.78;;;;;;;10.58;100.00;101555.38;5002756;28;20493;-76
2021/09/23 03:53:07;;;;;;;89.13;43.55;;;;;;;10.57;100.00;101557.19;5028762;28;20041;-76
2021/09/23 03:55:33;;;;;;;86.88;42.80;;;;;;;10.55;100.00;101555.63;5011405;28;20037;-75
2021/09/23 03:57:59;;;;;;;85.43;43.30;;;;;;;10.50;100.00;101554.22;5010264;28;20562;-76
2021/09/23 04:00:25;;;;;;;101.72;45.58;;;;;;;10.55;100.00;101556.47;5025021;28;20045;-76
2021/09/23 04:02:52;;;;;;;92.00;43.78;;;;;;;10.47;100.00;101551.84;5028847;28;20029;-76
2021/09/23 04:05:18;;;;;;;90.18;44.45;;;;;;;10.44;100.00;101549.47;5027670;28;20116;-75
2021/09/23 04:07:44;;;;;;;93.35;44.25;;;;;;;10.41;100.00;101548.88;5010929;28;20526;-75
2021/09/23 04:10:10;;;;;;;94.32;45.40;;;;;;;10.30;100.00;101534.00;5027330;28;20037;-75
2021/09/23 04:12:37;;;;;;;93.63;44.92;;;;;;;10.38;100.00;101530.78;5024030;28;20112;-74
2021/09/23 04:15:04;;;;;;;97.53;46.20;;;;;;;10.31;100.00;101525.22;5010955;28;20044;-75
2021/09/23 04:17:30;;;;;;;95.05;45.47;;;;;;;10.26;100.00;101525.53;5010611;28;20037;-74
2021/09/23 04:19:56;;;;;;;96.70;46.47;;;;;;;10.29;100.00;101511.38;5024982;28;20421;-78
2021/09/23 04:22:22;;;;;;;101.28;44.47;;;;;;;10.27;100.00;101508.88;5020143;28;20783;-78
2021/09/23 04:24:48;;;;;;;92.43;42.80;;;;;;;10.31;100.00;101509.47;5013075;28;20494;-76
2021/09/23 04:27:14;;;;;;;89.82;44.15;;;;;;;10.24;100.00;101511.72;5010598;28;20033;-77
2021/09/23 04:29:43;;;;;;;93.18;45.55;;;;;;;10.30;100.00;101510.41;5010732;28;20627;-74
2021/09/23 04:32:13;;;;;;;100.45;45.88;;;;;;;10.29;100.00;101499.09;5027085;28;20497;-77
2021/09/23 04:34:39;;;;;;;90.85;42.60;;;;;;;10.32;100.00;101505.88;5006739;28;20041;-76
2021/09/23 04:37:06;;;;;;;90.40;43.60;;;;;;;10.32;100.00;101492.78;5023685;28;20368;-75
2021/09/23 04:39:32;;;;;;;92.07;44.47;;;;;;;10.25;100.00;101509.97;5007266;28;20036;-74
2021/09/23 04:41:58;;;;;;;93.38;44.70;;;;;;;10.25;100.00;101508.16;5040549;28;20045;-76
2021/09/23 04:44:25;;;;;;;96.35;43.88;;;;;;;10.32;100.00;101504.13;5010584;28;20080;-74
2021/09/23 04:46:51;;;;;;;94.68;45.92;;;;;;;10.35;100.00;101489.91;5022130;28;20056;-76
2021/09/23 04:49:17;;;;;;;94.93;44.30;;;;;;;10.41;100.00;101491.19;5040916;28;20037;-75
2021/09/23 04:51:43;;;;;;;92.88;43.10;;;;;;;10.33;100.00;101487.41;5025218;28;20457;-76
2021/09/23 04:54:09;;;;;;;101.13;45.30;;;;;;;10.31;100.00;101470.97;5022965;28;20116;-76
2021/09/23 04:56:35;;;;;;;104.93;44.35;;;;;;;10.34;100.00;101456.78;5019183;28;20141;-78
2021/09/23 04:59:01;;;;;;;98.60;44.55;;;;;;;10.36;100.00;101443.53;5010803;28;20587;-74
2021/09/23 05:01:27;;;;;;;97.13;45.00;;;;;;;10.25;100.00;101440.00;5023380;28;20052;-76
2021/09/23 05:03:55;;;;;;;93.57;44.47;;;;;;;10.27;100.00;101448.56;5010563;28;20116;-75
2021/09/23 05:06:20;;;;;;;98.13;44.92;;;;;;;10.37;100.00;101447.84;4991061;28;20076;-73
2021/09/23 05:08:50;;;;;;;91.03;42.67;;;;;;;10.39;100.00;101436.25;4994302;28;20037;-76
2021/09/23 05:11:17;;;;;;;96.65;45.38;;;;;;;10.43;100.00;101429.78;5027354;28;20178;-76
2021/09/23 05:13:43;;;;;;;92.00;44.03;;;;;;;10.42;100.00;101420.25;5009497;28;20121;-73
2021/09/23 05:16:08;;;;;;;89.97;41.88;;;;;;;10.43;100.00;101421.09;5026833;28;20113;-75
2021/09/23 05:18:34;;;;;;;84.10;41.97;;;;;;;10.44;100.00;101410.47;4986962;28;20481;-75
2021/09/23 05:20:59;;;;;;;94.95;43.25;;;;;;;10.33;100.00;101406.13;5009956;28;20048;-76
2021/09/23 05:23:25;;;;;;;90.03;42.53;;;;;;;10.29;100.00;101403.88;5022240;28;20044;-75
2021/09/23 05:25:50;;;;;;;83.03;41.95;;;;;;;10.32;100.00;101403.63;5031276;28;20094;-75
2021/09/23 05:28:16;;;;;;;88.50;42.70;;;;;;;10.28;100.00;101404.81;5008623;28;20437;-74
2021/09/23 05:30:42;;;;;;;95.28;42.75;;;;;;;10.29;100.00;101411.72;5027699;28;20040;-76
2021/09/23 05:33:08;;;;;;;102.03;42.65;;;;;;;10.36;100.00;101412.91;5005624;28;20025;-76
2021/09/23 05:35:34;;;;;;;85.95;42.33;;;;;;;10.48;100.00;101417.13;5025450;28;20041;-77
2021/09/23 05:38:00;;;;;;;95.85;42.75;;;;;;;10.56;100.00;101423.50;5025443;28;20111;-77
2021/09/23 05:40:26;;;;;;;93.53;42.58;;;;;;;10.62;100.00;101415.13;5025736;28;20045;-76
2021/09/23 05:42:51;;;;;;;90.55;42.55;;;;;;;10.68;100.00;101423.31;5006840;28;20033;-76
2021/09/23 05:45:17;;;;;;;83.65;40.75;;;;;;;10.75;100.00;101414.91;5010959;28;20498;-75
2021/09/23 05:47:43;;;;;;;88.28;41.53;;;;;;;10.74;100.00;101418.47;5026116;28;20033;-77
2021/09/23 05:50:11;;;;;;;84.70;39.72;;;;;;;10.74;100.00;101423.72;5021529;28;20046;-76
2021/09/23 05:52:37;;;;;;;78.00;38.92;;;;;;;10.84;100.00;101425.44;4994078;28;20064;-77
2021/09/23 05:55:04;;;;;;;81.88;40.03;;;;;;;10.85;100.00;101428.88;5000611;28;20446;-76
2021/09/23 05:57:33;;;;;;;81.45;39.72;;;;;;;10.90;100.00;101421.47;5000380;28;20032;-73
2021/09/23 06:00:00;;;;;;;83.65;40.22;;;;;;;10.98;100.00;101423.41;5006928;28;20103;-77
2021/09/23 06:02:26;;;;;;;83.18;41.63;;;;;;;11.06;100.00;101415.72;5020724;28;20044;-72
2021/09/23 06:04:51;;;;;;;75.85;36.83;;;;;;;11.13;100.00;101403.72;5025118;28;20049;-77
2021/09/23 06:07:17;;;;;;;71.55;37.63;;;;;;;11.23;100.00;101393.25;5021845;28;20514;-73
2021/09/23 06:09:42;;;;;;;73.75;37.92;;;;;;;11.26;100.00;101392.97;5024126;28;20094;-76
2021/09/23 06:12:08;;;;;;;77.82;37.55;;;;;;;11.26;100.00;101387.72;5043138;28;20033;-74
2021/09/23 06:14:35;;;;;;;81.72;38.40;;;;;;;11.31;100.00;101393.41;5022906;28;20029;-76
2021/09/23 06:17:01;;;;;;;75.00;38.38;;;;;;;11.42;100.00;101387.22;5039901;28;20029;-74
2021/09/23 06:19:27;;;;;;;76.55;38.42;;;;;;;11.39;100.00;101366.44;5042027;28;20034;-75
2021/09/23 06:21:53;;;;;;;81.50;39.88;;;;;;;11.42;100.00;101364.38;4992807;28;20046;-73
2021/09/23 06:24:18;;;;;;;71.80;37.95;;;;;;;11.44;100.00;101364.25;5008721;28;20033;-73
2021/09/23 06:26:44;;;;;;;71.63;37.80;;;;;;;11.52;100.00;101359.13;5005348;28;20029;-75
2021/09/23 06:29:09;;;;;;;65.85;37.17;;;;;;;11.50;100.00;101358.44;4992646;28;20042;-74
2021/09/23 06:31:35;;;;;;;66.50;36.17;;;;;;;11.58;100.00;101360.38;5022149;28;20033;-75
2021/09/23 06:34:02;;;;;;;66.22;36.03;;;;;;;11.62;100.00;101346.84;5041746;28;20534;-73
2021/09/23 06:36:33;;;;;;;61.38;34.50;;;;;;;11.78;100.00;101330.50;5006162;28;20041;-76
2021/09/23 06:38:59;;;;;;;66.05;34.38;;;;;;;11.92;100.00;101331.06;5005807;28;20075;-76
2021/09/23 06:41:25;;;;;;;66.35;33.55;;;;;;;11.85;100.00;101325.53;4999039;28;20044;-75
2021/09/23 06:43:51;;;;;;;62.30;34.47;;;;;;;11.96;100.00;101322.78;5025538;28;20030;-74
2021/09/23 06:46:20;;;;;;;69.07;33.80;;;;;;;12.01;100.00;101320.53;5024122;28;20045;-75
2021/09/23 06:48:45;;;;;;;61.53;33.65;;;;;;;12.15;100.00;101314.00;5021343;28;20044;-75
2021/09/23 06:51:11;;;;;;;65.00;34.80;;;;;;;12.18;100.00;101310.25;4989249;28;20033;-75
2021/09/23 06:53:36;;;;;;;60.67;32.63;;;;;;;12.20;100.00;101310.94;5030700;28;20044;-75
2021/09/23 06:56:02;;;;;;;61.85;32.47;;;;;;;12.20;100.00;101298.59;5016512;28;20057;-76
2021/09/23 06:58:28;;;;;;;55.85;32.40;;;;;;;12.31;100.00;101296.78;5023149;28;20042;-75
2021/09/23 07:01:12;;;;;;;61.08;32.65;;;;;;;12.39;100.00;101289.81;4999634;28;20071;-75
2021/09/23 07:04:12;;;;;;;55.95;32.47;;;;;;;12.42;100.00;101288.72;5008157;28;20083;-75
2021/09/23 07:06:57;;;;;;;67.00;33.65;;;;;;;12.41;100.00;101285.28;5001895;28;20045;-76
2021/09/23 07:09:36;;;;;;;63.17;32.75;;;;;;;12.48;100.00;101290.75;5015092;28;20815;-75
2021/09/23 07:12:10;;;;;;;56.83;32.03;;;;;;;12.55;100.00;101281.31;5010474;28;20033;-75
2021/09/23 07:14:35;;;;;;;58.75;31.35;;;;;;;12.64;100.00;101280.44;5028552;28;20047;-75
2021/09/23 07:17:01;;;;;;;53.55;30.35;;;;;;;12.65;100.00;101276.00;5005485;28;20033;-75
2021/09/23 07:19:27;;;;;;;52.72;29.60;;;;;;;12.78;100.00;101267.75;5029523;28;20033;-75
2021/09/23 07:21:52;;;;;;;52.88;29.85;;;;;;;12.72;100.00;101269.16;5044698;28;20065;-76
2021/09/23 07:24:18;;;;;;;52.90;29.83;;;;;;;12.77;100.00;101274.84;5031824;28;20059;-76
2021/09/23 07:26:44;;;;;;;55.85;29.58;;;;;;;12.85;100.00;101282.81;5025905;28;20401;-76
2021/09/23 07:29:14;;;;;;;49.85;27.80;;;;;;;12.90;100.00;101282.34;5012107;28;20124;-74
2021/09/23 07:31:41;;;;;;;54.80;29.45;;;;;;;13.03;100.00;101276.72;5041652;28;20041;-75
2021/09/23 07:34:06;;;;;;;57.05;30.55;;;;;;;13.11;100.00;101268.91;4996417;28;20676;-74
2021/09/23 07:36:32;;;;;;;52.72;30.15;;;;;;;13.24;100.00;101264.09;5023690;28;20161;-77
2021/09/23 07:38:58;;;;;;;53.13;28.95;;;;;;;13.39;100.00;101253.03;5001870;28;20038;-74
2021/09/23 07:41:24;;;;;;;50.92;27.98;;;;;;;13.46;100.00;101253.28;5027297;28;20056;-76
2021/09/23 07:43:49;;;;;;;50.90;27.08;;;;;;;13.53;100.00;101254.31;5026252;28;20490;-75
2021/09/23 07:46:15;;;;;;;52.67;27.27;;;;;;;13.57;100.00;101237.22;5032357;28;20041;-74
2021/09/23 07:48:41;;;;;;;42.45;26.80;;;;;;;13.61;100.00;101235.91;5044483;28;20068;-75
2021/09/23 07:51:06;;;;;;;48.80;26.10;;;;;;;13.72;100.00;101240.13;5000764;28;20060;-76
2021/09/23 07:53:32;;;;;;;43.67;26.25;;;;;;;13.86;100.00;101241.34;4990483;28;20125;-74
2021/09/23 07:55:59;;;;;;;44.72;24.55;;;;;;;13.98;100.00;101243.56;5029095;28;20092;-74
2021/09/23 07:58:34;;;;;;;41.85;25.52;;;;;;;14.12;100.00;101250.06;5019030;28;20518;-75
2021/09/23 08:01:00;;;;;;;45.83;24.65;;;;;;;14.22;100.00;101249.94;5024101;28;20167;-75
2021/09/23 08:03:26;;;;;;;40.90;23.38;;;;;;;14.32;100.00;101244.56;5047294;28;20050;-76
2021/09/23 08:05:51;;;;;;;50.55;25.23;;;;;;;14.39;100.00;101250.81;5030241;28;20080;-74
2021/09/23 08:08:17;;;;;;;38.10;23.13;;;;;;;14.46;100.00;101248.38;5010808;28;20048;-75
2021/09/23 08:10:44;;;;;;;44.25;24.30;;;;;;;14.56;100.00;101257.84;4993773;28;20033;-75
2021/09/23 08:13:10;;;;;;;36.85;22.08;;;;;;;14.58;100.00;101250.63;5026861;28;20052;-75
2021/09/23 08:15:36;;;;;;;36.40;21.95;;;;;;;14.71;100.00;101247.53;5010335;28;20544;-74
2021/09/23 08:18:24;;;;;;;39.17;21.20;;;;;;;14.78;100.00;101245.88;5025770;28;20073;-75
2021/09/23 08:21:01;;;;;;;35.97;21.92;;;;;;;14.86;100.00;101257.44;5021779;28;20033;-76
2021/09/23 08:23:29;;;;;;;38.78;21.27;;;;;;;14.81;100.00;101241.28;5026587;28;20390;-74
2021/09/23 08:25:55;;;;;;;40.30;22.80;;;;;;;14.72;100.00;101248.34;5010687;28;20108;-76
2021/09/23 08:28:26;;;;;;;37.78;22.58;;;;;;;14.66;100.00;101239.25;5036677;28;20033;-75
2021/09/23 08:30:53;;;;;;;37.85;22.02;;;;;;;14.70;100.00;101247.69;5002993;28;20512;-75
2021/09/23 08:33:19;;;;;;;38.47;22.80;;;;;;;14.67;100.00;101240.88;5006610;28;20490;-75
2021/09/23 08:35:45;;;;;;;36.75;22.92;;;;;;;14.76;100.00;101228.53;5026530;28;20034;-75
2021/09/23 08:38:11;;;;;;;41.47;22.88;;;;;;;14.67;100.00;101232.97;5025500;28;20080;-74
2021/09/23 08:40:39;;;;;;;43.40;22.80;;;;;;;14.64;100.00;101220.09;5023599;28;20498;-73
2021/09/23 08:43:05;;;;;;;38.25;22.80;;;;;;;14.56;100.00;101215.59;5010806;28;20045;-76
2021/09/23 08:45:30;;;;;;;43.60;24.25;;;;;;;14.45;100.00;101210.63;5019088;28;20034;-75
2021/09/23 08:47:56;;;;;;;40.58;23.48;;;;;;;14.43;100.00;101217.88;4986222;28;20072;-76
2021/09/23 08:50:23;;;;;;;38.38;23.48;;;;;;;14.39;100.00;101205.97;5010537;28;20472;-78
2021/09/23 08:52:49;;;;;;;35.50;23.38;;;;;;;14.33;100.00;101215.34;5010783;28;20044;-76
2021/09/23 08:55:24;;;;;;;37.55;23.25;;;;;;;14.41;100.00;101199.56;5011805;28;20037;-77
2021/09/23 08:57:52;;;;;;;43.22;23.65;;;;;;;14.37;100.00;101197.38;5014187;28;20575;-78
2021/09/23 09:00:18;;;;;;;36.15;21.90;;;;;;;14.37;100.00;101195.59;5043263;28;20241;-75
2021/09/23 09:02:59;;;;;;;38.67;23.15;;;;;;;14.40;100.00;101192.63;4995048;28;20029;-77
2021/09/23 09:05:51;;;;;;;36.15;23.08;;;;;;;14.36;100.00;101174.63;5012418;28;20041;-73
2021/09/23 09:08:43;;;;;;;36.10;23.25;;;;;;;14.39;100.00;101179.56;4997594;28;20176;-76
2021/09/23 09:11:30;;;;;;;41.15;24.63;;;;;;;14.37;100.00;101185.03;5014912;28;20582;-76
2021/09/23 09:13:56;;;;;;;36.33;23.48;;;;;;;14.40;100.00;101182.06;4991109;28;20169;-77
2021/09/23 09:16:29;;;;;;;39.00;24.92;;;;;;;14.43;100.00;101180.09;5020132;28;20033;-74
2021/09/23 09:18:58;;;;;;;44.58;23.77;;;;;;;14.41;100.00;101175.81;5010197;28;20426;-75
2021/09/23 09:21:27;;;;;;;49.45;24.75;;;;;;;14.41;100.00;101183.72;5043396;28;20452;-76
2021/09/23 09:23:58;;;;;;;43.97;26.30;;;;;;;14.36;100.00;101170.19;5025408;28;20048;-76
2021/09/23 09:26:40;;;;;;;37.60;23.40;;;;;;;14.31;100.00;101174.28;4974459;28;20037;-74
2021/09/23 09:29:09;;;;;;;39.78;24.45;;;;;;;14.28;100.00;101174.59;5022955;28;20140;-74
2021/09/23 09:31:36;;;;;;;39.33;24.25;;;;;;;14.32;100.00;101173.31;5000551;28;20052;-74
2021/09/23 09:34:04;;;;;;;36.25;24.00;;;;;;;14.35;100.00;101159.78;5009526;28;20087;-76
2021/09/23 09:36:49;;;;;;;41.47;24.73;;;;;;;14.48;100.00;101165.41;5012598;28;20025;-75
2021/09/23 09:39:18;;;;;;;38.60;24.38;;;;;;;14.46;100.00;101161.28;5007703;28;20044;-75
2021/09/23 09:41:47;;;;;;;37.38;23.05;;;;;;;14.57;100.00;101155.75;5032452;28;20030;-74
2021/09/23 09:44:14;;;;;;;40.13;23.23;;;;;;;14.66;100.00;101146.03;5013439;28;20042;-75
2021/09/23 09:46:41;;;;;;;41.80;23.77;;;;;;;14.75;100.00;101147.69;5003489;28;20872;-73
2021/09/23 09:49:09;;;;;;;38.15;22.55;;;;;;;14.78;100.00;101144.69;5009764;28;20041;-76
2021/09/23 09:51:39;;;;;;;36.58;22.40;;;;;;;14.91;100.00;101144.22;5024446;28;20069;-76
2021/09/23 09:54:06;;;;;;;37.15;22.30;;;;;;;14.90;100.00;101124.91;4993173;28;20045;-76
2021/09/23 09:56:37;;;;;;;37.63;22.00;;;;;;;14.90;100.00;101117.00;5023970;28;20025;-75
2021/09/23 09:59:04;;;;;;;35.78;21.65;;;;;;;14.97;100.00;101119.78;5025268;28;20041;-75
2021/09/23 10:01:30;;;;;;;36.35;21.70;;;;;;;14.94;100.00;101114.84;5021560;28;20041;-74
2021/09/23 10:03:56;;;;;;;33.80;20.63;;;;;;;14.92;100.00;101106.25;5009675;28;20103;-73
2021/09/23 10:06:22;;;;;;;35.97;20.88;;;;;;;15.03;100.00;101100.66;5021859;28;20044;-75
2021/09/23 10:08:49;;;;;;;33.92;21.02;;;;;;;15.09;100.00;101089.41;5006218;28;20061;-76
2021/09/23 10:11:14;;;;;;;31.60;19.05;;;;;;;15.24;100.00;101081.63;4991578;28;20041;-76
2021/09/23 10:13:41;;;;;;;31.23;19.02;;;;;;;15.41;100.00;101079.75;4999481;28;20045;-76
2021/09/23 10:16:08;;;;;;;32.42;18.48;;;;;;;15.46;100.00;101080.03;5006050;28;20039;-76
2021/09/23 10:18:34;;;;;;;32.42;18.48;;;;;;;15.62;100.00;101065.94;5005950;28;20819;-76
2021/09/23 10:21:00;;;;;;;29.27;17.17;;;;;;;15.66;100.00;101064.59;5041779;28;20037;-75
2021/09/23 10:23:29;;;;;;;26.60;17.13;;;;;;;15.67;100.00;101049.56;5018607;28;20121;-75
2021/09/23 10:25:57;;;;;;;26.52;16.73;;;;;;;15.73;100.00;101051.53;5019925;28;20038;-76
2021/09/23 10:28:26;;;;;;;25.05;16.35;;;;;;;15.79;100.00;101050.06;5021582;28;20064;-76
2021/09/23 10:30:52;;;;;;;27.42;15.98;;;;;;;15.84;100.00;101037.97;5020194;28;20068;-77
2021/09/23 10:33:20;;;;;;;22.50;14.68;;;;;;;15.84;99.25;101031.81;5040384;28;20107;-76
2021/09/23 10:35:48;;;;;;;26.30;14.32;;;;;;;16.00;98.37;101023.78;5034189;28;20030;-76
2021/09/23 10:38:20;;;;;;;27.40;13.90;;;;;;;16.06;97.29;101028.38;5005006;28;20154;-74
2021/09/23 10:40:47;;;;;;;22.65;12.52;;;;;;;15.95;95.40;101024.34;5002978;28;20045;-76
2021/09/23 10:43:17;;;;;;;22.27;12.90;;;;;;;15.89;99.20;101029.47;5020084;28;20040;-76
2021/09/23 10:45:48;;;;;;;21.30;11.93;;;;;;;15.77;99.67;101018.50;5020333;28;20129;-76
2021/09/23 10:48:14;;;;;;;19.13;12.10;;;;;;;15.72;100.00;101024.25;5042348;28;20661;-76
2021/09/23 10:50:41;;;;;;;23.05;12.10;;;;;;;15.67;100.00;101020.47;5019387;28;20045;-76
2021/09/23 10:53:10;;;;;;;20.75;10.88;;;;;;;15.70;99.84;101014.84;5006082;28;20036;-75
2021/09/23 10:55:43;;;;;;;19.52;11.85;;;;;;;15.66;100.00;101019.66;5029592;28;20521;-76
2021/09/23 10:58:13;;;;;;;19.80;12.30;;;;;;;15.77;98.00;101007.91;5008658;28;20068;-75
2021/09/23 11:00:40;;;;;;;20.67;11.70;;;;;;;15.75;99.95;101023.94;5046505;28;20033;-76
2021/09/23 11:03:08;;;;;;;21.08;12.05;;;;;;;15.84;99.19;101013.31;4979441;28;20088;-76
2021/09/23 11:05:35;;;;;;;21.85;11.38;;;;;;;15.85;99.23;101023.72;5009560;28;20061;-76